createdAt,value
2018-12-31T00:04:06.496Z,14.58
2018-12-31T00:09:08.887Z,14.98
2018-12-31T00:14:10.979Z,16.70
2018-12-31T00:19:13.060Z,15.00
2018-12-31T00:24:15.114Z,15.25
2018-12-31T00:29:17.197Z,16.25
2018-12-31T00:34:19.571Z,15.05
2018-12-31T00:39:21.689Z,16.97
2018-12-31T00:44:24.104Z,17.37
2018-12-31T00:49:26.126Z,17.95
2018-12-31T00:54:28.211Z,16.42
2018-12-31T00:59:30.296Z,17.23
2018-12-31T01:04:32.364Z,18.32
2018-12-31T01:09:34.787Z,17.23
2018-12-31T01:14:36.819Z,16.62
2018-12-31T01:19:38.874Z,17.07
2018-12-31T01:24:41.210Z,17.65
2018-12-31T01:29:43.270Z,17.37
2018-12-31T01:34:45.734Z,17.48
2018-12-31T01:39:47.873Z,17.07
2018-12-31T01:44:49.917Z,17.05
2018-12-31T01:49:51.922Z,19.40
2018-12-31T01:54:53.959Z,17.80
2018-12-31T01:59:57.505Z,16.82
2018-12-31T02:04:59.571Z,17.65
2018-12-31T02:10:01.630Z,18.35
2018-12-31T02:15:04.362Z,17.92
2018-12-31T02:20:06.459Z,18.37
2018-12-31T02:25:08.511Z,17.40
2018-12-31T02:30:10.607Z,16.42
2018-12-31T02:35:12.642Z,17.92
2018-12-31T02:40:14.735Z,17.52
2018-12-31T02:45:16.768Z,17.25
2018-12-31T02:50:18.806Z,15.65
2018-12-31T02:55:20.866Z,16.60
2018-12-31T03:00:23.890Z,16.42
2018-12-31T03:05:25.904Z,16.50
2018-12-31T03:10:27.954Z,16.67
2018-12-31T03:15:30.507Z,15.55
2018-12-31T03:20:32.545Z,16.23
2018-12-31T03:25:34.659Z,16.73
2018-12-31T03:30:37.205Z,16.20
2018-12-31T03:35:39.260Z,15.75
2018-12-31T03:40:41.366Z,16.82
2018-12-31T03:45:43.362Z,16.15
2018-12-31T03:50:45.462Z,16.20
2018-12-31T03:55:47.501Z,14.78
2018-12-31T04:00:49.585Z,15.83
2018-12-31T04:05:51.662Z,16.60
2018-12-31T04:10:53.721Z,16.00
2018-12-31T04:15:55.783Z,15.08
2018-12-31T04:20:57.913Z,16.48
2018-12-31T04:25:59.996Z,14.70
2018-12-31T04:31:02.210Z,15.40
2018-12-31T04:36:04.292Z,14.87
2018-12-31T04:41:06.631Z,14.83
2018-12-31T04:46:08.700Z,14.50
2018-12-31T04:51:10.875Z,15.00
2018-12-31T04:56:12.916Z,16.25
2018-12-31T05:01:14.980Z,15.85
2018-12-31T05:06:17.026Z,15.28
2018-12-31T05:11:19.110Z,14.53
2018-12-31T05:16:21.216Z,13.88
2018-12-31T05:21:23.431Z,14.25
2018-12-31T05:26:25.785Z,13.10
2018-12-31T05:31:27.943Z,14.58
2018-12-31T05:36:30.035Z,12.63
2018-12-31T05:41:32.154Z,13.78
2018-12-31T05:46:34.153Z,15.58
2018-12-31T05:51:36.208Z,15.03
2018-12-31T05:56:38.232Z,13.85
2018-12-31T06:01:40.639Z,15.13
2018-12-31T06:06:42.772Z,16.80
2018-12-31T06:11:44.891Z,15.38
2018-12-31T06:16:47.011Z,16.60
2018-12-31T06:21:49.158Z,16.05
2018-12-31T06:26:51.251Z,17.57
2018-12-31T06:31:53.286Z,17.25
2018-12-31T06:36:55.344Z,16.40
2018-12-31T06:41:57.407Z,16.27
2018-12-31T06:46:59.506Z,16.77
2018-12-31T06:52:01.629Z,17.65
2018-12-31T06:57:03.704Z,16.77
2018-12-31T07:02:05.860Z,17.52
2018-12-31T07:07:08.173Z,17.23
2018-12-31T07:12:10.361Z,17.42
2018-12-31T07:17:12.400Z,16.80
2018-12-31T07:22:14.477Z,17.70
2018-12-31T07:27:16.499Z,20.05
2018-12-31T07:32:18.552Z,17.35
2018-12-31T07:37:20.621Z,16.75
2018-12-31T07:42:22.710Z,17.55
2018-12-31T07:47:24.761Z,17.77
2018-12-31T07:52:27.606Z,17.87
2018-12-31T07:57:29.683Z,18.17
2018-12-31T08:02:33.645Z,18.30
2018-12-31T08:07:35.831Z,17.23
2018-12-31T08:12:37.919Z,16.48
2018-12-31T08:17:40.001Z,17.17
2018-12-31T08:22:42.244Z,18.25
2018-12-31T08:27:44.298Z,17.00
2018-12-31T08:32:46.348Z,15.75
2018-12-31T08:37:48.392Z,15.43
2018-12-31T08:42:50.478Z,15.43
2018-12-31T08:47:52.624Z,16.70
2018-12-31T08:52:54.742Z,16.52
2018-12-31T08:57:56.851Z,16.32
2018-12-31T09:02:58.941Z,15.95
2018-12-31T09:08:01.389Z,17.23
2018-12-31T09:13:03.634Z,16.12
2018-12-31T09:18:05.814Z,16.07
2018-12-31T09:23:07.916Z,16.62
2018-12-31T09:28:09.982Z,16.30
2018-12-31T09:33:16.206Z,17.85
2018-12-31T09:38:18.237Z,16.93
2018-12-31T09:43:20.386Z,17.60
2018-12-31T09:48:22.468Z,16.57
2018-12-31T09:53:24.547Z,17.02
2018-12-31T09:58:26.608Z,16.57
2018-12-31T10:03:28.659Z,17.25
2018-12-31T10:08:30.744Z,16.42
2018-12-31T10:13:32.910Z,16.77
2018-12-31T10:18:35.307Z,17.20
2018-12-31T10:23:37.460Z,17.23
2018-12-31T10:28:39.484Z,17.20
2018-12-31T10:33:41.542Z,16.87
2018-12-31T10:38:43.570Z,18.23
2018-12-31T10:43:45.666Z,17.57
2018-12-31T10:48:47.632Z,16.93
2018-12-31T10:53:49.619Z,15.38
2018-12-31T10:58:51.677Z,15.60
2018-12-31T11:03:53.697Z,16.30
2018-12-31T11:08:56.168Z,16.55
2018-12-31T11:13:58.601Z,16.85
2018-12-31T11:19:00.642Z,16.77
2018-12-31T11:24:02.691Z,16.93
2018-12-31T11:29:05.302Z,16.73
2018-12-31T11:34:07.827Z,15.98
2018-12-31T11:39:10.320Z,16.32
2018-12-31T11:44:12.656Z,15.63
2018-12-31T11:49:14.686Z,16.40
2018-12-31T11:54:16.751Z,15.93
2018-12-31T11:59:18.842Z,15.25
2018-12-31T12:04:20.900Z,14.78
2018-12-31T12:09:23.320Z,15.85
2018-12-31T12:14:25.369Z,15.38
2018-12-31T12:19:27.749Z,16.73
2018-12-31T12:24:29.814Z,15.63
2018-12-31T12:29:31.877Z,16.93
2018-12-31T12:34:33.897Z,17.00
2018-12-31T12:39:36.128Z,15.63
2018-12-31T12:44:38.214Z,15.20
2018-12-31T12:49:40.635Z,14.25
2018-12-31T12:54:42.687Z,15.70
2018-12-31T12:59:44.759Z,15.00
2018-12-31T13:04:46.889Z,14.93
2018-12-31T13:09:48.919Z,14.85
2018-12-31T13:14:50.944Z,14.75
2018-12-31T13:19:53.051Z,13.78
2018-12-31T13:24:55.183Z,14.83
2018-12-31T13:29:58.259Z,13.58
2018-12-31T13:35:00.901Z,14.63
2018-12-31T13:40:02.969Z,13.72
2018-12-31T13:45:05.068Z,13.58
2018-12-31T13:50:07.117Z,14.73
2018-12-31T13:55:09.646Z,16.30
2018-12-31T14:00:11.790Z,15.32
2018-12-31T14:05:13.823Z,14.40
2018-12-31T14:10:16.031Z,14.53
2018-12-31T14:15:18.132Z,15.05
2018-12-31T14:20:20.208Z,16.90
2018-12-31T14:25:22.327Z,15.85
2018-12-31T14:30:24.475Z,15.43
2018-12-31T14:35:26.505Z,16.30
2018-12-31T14:40:28.587Z,15.85
2018-12-31T14:45:31.000Z,15.88
2018-12-31T14:50:34.133Z,15.35
2018-12-31T14:55:36.873Z,16.27
2018-12-31T15:00:39.418Z,16.50
2018-12-31T15:05:42.202Z,16.50
2018-12-31T15:10:44.552Z,16.52
2018-12-31T15:15:48.722Z,16.93
2018-12-31T15:20:50.770Z,15.95
2018-12-31T15:25:54.833Z,16.80
2018-12-31T15:30:57.038Z,16.93
2018-12-31T15:35:59.798Z,17.80
2018-12-31T15:41:02.096Z,16.77
2018-12-31T15:46:04.184Z,16.62
2018-12-31T15:51:06.189Z,16.77
2018-12-31T15:56:08.669Z,17.80
2018-12-31T16:01:10.825Z,16.87
2018-12-31T16:06:13.323Z,16.97
2018-12-31T16:11:15.404Z,17.75
2018-12-31T16:16:17.535Z,18.15
2018-12-31T16:21:20.752Z,18.87
2018-12-31T16:26:22.808Z,16.80
2018-12-31T16:31:24.885Z,18.45
2018-12-31T16:36:27.217Z,17.52
2018-12-31T16:41:29.553Z,17.75
2018-12-31T16:46:32.043Z,18.23
2018-12-31T16:51:34.048Z,18.25
2018-12-31T16:56:36.042Z,17.90
2018-12-31T17:01:38.600Z,18.12
2018-12-31T17:06:40.979Z,19.45
2018-12-31T17:11:42.957Z,18.55
2018-12-31T17:16:45.467Z,20.37
2018-12-31T17:21:47.555Z,22.17
2018-12-31T17:26:49.645Z,21.00
2018-12-31T17:31:51.777Z,21.40
2018-12-31T17:36:53.845Z,22.80
2018-12-31T17:42:20.228Z,23.98
2018-12-31T17:47:22.368Z,22.80
2018-12-31T17:52:24.813Z,23.18
2018-12-31T17:57:27.948Z,24.20
2018-12-31T18:02:30.027Z,26.90
2018-12-31T18:07:33.655Z,34.92
2018-12-31T18:12:36.478Z,28.60
2018-12-31T18:17:38.570Z,28.07
2018-12-31T18:22:40.790Z,27.65
2018-12-31T18:27:42.884Z,24.32
2018-12-31T18:32:52.603Z,25.50
2018-12-31T18:37:54.727Z,25.30
2018-12-31T18:42:56.736Z,27.60
2018-12-31T18:47:59.122Z,27.00
2018-12-31T18:53:01.276Z,26.10
2018-12-31T18:58:03.386Z,26.82
2018-12-31T19:03:05.399Z,26.75
2018-12-31T19:08:07.707Z,28.75
2018-12-31T19:13:09.766Z,28.07
2018-12-31T19:18:11.829Z,28.45
2018-12-31T19:23:13.868Z,27.80
2018-12-31T19:28:15.979Z,28.10
2018-12-31T19:33:18.339Z,25.77
2018-12-31T19:38:20.401Z,26.68
2018-12-31T19:43:23.030Z,28.40
2018-12-31T19:48:25.419Z,27.40
2018-12-31T19:53:27.461Z,28.20
2018-12-31T19:58:29.523Z,28.38
2018-12-31T20:03:31.717Z,27.13
2018-12-31T20:08:33.851Z,29.10
2018-12-31T20:13:35.911Z,29.70
2018-12-31T20:18:37.890Z,27.42
2018-12-31T20:23:42.822Z,29.23
2018-12-31T20:28:44.852Z,29.25
2018-12-31T20:33:48.222Z,30.65
2018-12-31T20:38:50.334Z,35.20
2018-12-31T20:43:52.415Z,32.67
2018-12-31T20:48:54.491Z,48.20
2018-12-31T20:53:56.635Z,38.88
2018-12-31T20:58:58.712Z,34.33
2018-12-31T21:04:01.255Z,41.20
2018-12-31T21:09:05.555Z,44.67
2018-12-31T21:14:07.618Z,40.50
2018-12-31T21:19:09.631Z,40.58
2018-12-31T21:24:11.708Z,41.05
2018-12-31T21:29:13.783Z,42.17
2018-12-31T21:34:15.880Z,40.15
2018-12-31T21:39:17.921Z,42.00
2018-12-31T21:44:20.347Z,47.03
2018-12-31T21:49:22.748Z,58.87
2018-12-31T21:54:25.243Z,57.85
2018-12-31T21:59:27.278Z,60.30
2018-12-31T22:04:29.366Z,84.35
2018-12-31T22:09:31.427Z,62.05
2018-12-31T22:14:33.660Z,77.53
2018-12-31T22:19:35.745Z,86.97
2018-12-31T22:24:37.882Z,85.20
2018-12-31T22:29:40.134Z,74.53
2018-12-31T22:34:42.427Z,79.00
2018-12-31T22:39:44.391Z,71.25
2018-12-31T22:44:46.656Z,75.05
2018-12-31T22:49:48.733Z,96.78
2018-12-31T22:54:50.735Z,116.70
2018-12-31T22:59:52.801Z,127.38
2018-12-31T23:04:55.037Z,214.80
2018-12-31T23:09:57.142Z,561.90
2018-12-31T23:14:59.199Z,681.42
2018-12-31T23:20:01.221Z,797.00
2018-12-31T23:25:03.310Z,622.63
2018-12-31T23:30:06.931Z,546.60
2018-12-31T23:35:09.127Z,587.45
2018-12-31T23:40:11.218Z,510.07
2018-12-31T23:45:13.406Z,458.68
2018-12-31T23:50:15.789Z,364.55
2018-12-31T23:55:17.919Z,201.22
